QAK618 MMAA-MMMY
Flight info
| Callsign | QAK618 |
|---|---|
| Flight time | N/A |
| Altitude | 28000 |
| Route | ALNUS1B ALNUS UT117 ESPOS/N0486F290 DCT AXIRI/N0479F280 UT138 TALPU/N0482F300 UT138 CVM UJ15E RETOS RETOS1A |
| Aircraft | B722/M-SDFGHRWY/C |
Departure
| Time | N/A |
|---|---|
| Airport | General Juan N. Álvarez International Airport (MMAA) |
Arrival
| Time | 2026-04-28 18:20 |
|---|---|
| Airport | Monterrey International Airport (MMMY) |
| Time | Latitude | Longitude | Altitude | Speed | Heading |
|---|---|---|---|---|---|
| 2026-04-28 17:02 | 17.97364 | -99.78616 | 28700 ft | 445 kts | 357° |
| 2026-04-28 17:02 | 18.00439 | -99.78759 | 28854 ft | 451 kts | 356° |
| 2026-04-28 17:03 | 18.06775 | -99.79128 | 29327 ft | 457 kts | 356° |
| 2026-04-28 17:03 | 18.10010 | -99.79296 | 29544 ft | 462 kts | 357° |
| 2026-04-28 17:03 | 18.13186 | -99.79455 | 29788 ft | 464 kts | 357° |
| 2026-04-28 17:04 | 18.19693 | -99.79811 | 29998 ft | 476 kts | 356° |
| 2026-04-28 17:04 | 18.23020 | -99.79991 | 30001 ft | 483 kts | 357° |
| 2026-04-28 17:05 | 18.29834 | -99.80351 | 30013 ft | 497 kts | 356° |
| 2026-04-28 17:05 | 18.33305 | -99.80540 | 30010 ft | 503 kts | 356° |
| 2026-04-28 17:06 | 18.43898 | -99.81108 | 30012 ft | 509 kts | 357° |
| 2026-04-28 17:06 | 18.54515 | -99.81680 | 30000 ft | 509 kts | 357° |
| 2026-04-28 17:07 | 18.61554 | -99.82058 | 30002 ft | 503 kts | 356° |
| 2026-04-28 17:07 | 18.68494 | -99.82432 | 29993 ft | 496 kts | 357° |
| 2026-04-28 17:08 | 18.75284 | -99.81624 | 29990 ft | 491 kts | 17° |
| 2026-04-28 17:08 | 18.81627 | -99.79041 | 30013 ft | 487 kts | 25° |
| 2026-04-28 17:09 | 18.87812 | -99.76176 | 30008 ft | 484 kts | 21° |
| 2026-04-28 17:09 | 18.93021 | -99.74033 | 29998 ft | 482 kts | 22° |
| 2026-04-28 17:10 | 18.99262 | -99.71205 | 29995 ft | 480 kts | 22° |
| 2026-04-28 17:10 | 19.05443 | -99.68559 | 29991 ft | 478 kts | 22° |
| 2026-04-28 17:11 | 19.11529 | -99.65856 | 29993 ft | 477 kts | 22° |
| 2026-04-28 17:11 | 19.17652 | -99.63192 | 29991 ft | 476 kts | 22° |
| 2026-04-28 17:12 | 19.23755 | -99.60502 | 29992 ft | 474 kts | 22° |
| 2026-04-28 17:12 | 19.29848 | -99.57832 | 29994 ft | 474 kts | 22° |
| 2026-04-28 17:13 | 19.35922 | -99.55158 | 29993 ft | 473 kts | 22° |
| 2026-04-28 17:13 | 19.42005 | -99.52485 | 29991 ft | 472 kts | 22° |
| 2026-04-28 17:14 | 19.48068 | -99.49813 | 29993 ft | 472 kts | 22° |
| 2026-04-28 17:14 | 19.54130 | -99.47143 | 29992 ft | 472 kts | 22° |
| 2026-04-28 17:15 | 19.60194 | -99.44468 | 29992 ft | 471 kts | 22° |
| 2026-04-28 17:15 | 19.66242 | -99.41799 | 29991 ft | 471 kts | 22° |
| 2026-04-28 17:16 | 19.72295 | -99.39125 | 29991 ft | 471 kts | 22° |
| 2026-04-28 17:16 | 19.78332 | -99.36456 | 29991 ft | 471 kts | 22° |
| 2026-04-28 17:17 | 19.84373 | -99.33783 | 29993 ft | 470 kts | 22° |
| 2026-04-28 17:17 | 19.90417 | -99.31107 | 29993 ft | 470 kts | 22° |
| 2026-04-28 17:18 | 19.96455 | -99.28430 | 29993 ft | 470 kts | 22° |
| 2026-04-28 17:18 | 20.02494 | -99.25752 | 29993 ft | 470 kts | 22° |
| 2026-04-28 17:19 | 20.08533 | -99.23071 | 29993 ft | 470 kts | 22° |
| 2026-04-28 17:19 | 20.14571 | -99.20388 | 29993 ft | 470 kts | 22° |
| 2026-04-28 17:20 | 20.19581 | -99.18160 | 29993 ft | 470 kts | 22° |
| 2026-04-28 17:20 | 20.26603 | -99.15036 | 29994 ft | 470 kts | 22° |
| 2026-04-28 17:21 | 20.32642 | -99.12344 | 29994 ft | 471 kts | 22° |
| 2026-04-28 17:22 | 20.41712 | -99.08313 | 29994 ft | 470 kts | 21° |
| 2026-04-28 17:22 | 20.44848 | -99.07377 | 29999 ft | 470 kts | 9° |
| 2026-04-28 17:22 | 20.48090 | -99.06957 | 30014 ft | 469 kts | 4° |
| 2026-04-28 17:23 | 20.57874 | -99.06653 | 30016 ft | 469 kts | 4° |
| 2026-04-28 17:23 | 20.64386 | -99.06195 | 30003 ft | 469 kts | 2° |
| 2026-04-28 17:24 | 20.70909 | -99.05949 | 30009 ft | 469 kts | 2° |
| 2026-04-28 17:24 | 20.76338 | -99.05623 | 30004 ft | 470 kts | 3° |
| 2026-04-28 17:25 | 20.86135 | -99.05152 | 30008 ft | 470 kts | 2° |
| 2026-04-28 17:26 | 20.92666 | -99.04801 | 30013 ft | 470 kts | 2° |
| 2026-04-28 17:26 | 20.99200 | -99.04480 | 30012 ft | 470 kts | 2° |
| 2026-04-28 17:27 | 21.05733 | -99.04139 | 30003 ft | 470 kts | 2° |
| 2026-04-28 17:27 | 21.12276 | -99.03809 | 30016 ft | 470 kts | 2° |
| 2026-04-28 17:28 | 21.18806 | -99.03472 | 30004 ft | 470 kts | 2° |
| 2026-04-28 17:28 | 21.28613 | -99.02972 | 30007 ft | 470 kts | 2° |
| 2026-04-28 17:29 | 21.35148 | -99.02636 | 30009 ft | 470 kts | 2° |
| 2026-04-28 17:30 | 21.44942 | -99.02134 | 30010 ft | 470 kts | 2° |
| 2026-04-28 17:30 | 21.54751 | -99.01630 | 30006 ft | 470 kts | 2° |
| 2026-04-28 17:31 | 21.64555 | -99.01126 | 30008 ft | 470 kts | 2° |
| 2026-04-28 17:32 | 21.74308 | -99.00623 | 30002 ft | 470 kts | 2° |
| 2026-04-28 17:32 | 21.80881 | -99.00285 | 30008 ft | 470 kts | 2° |
| 2026-04-28 17:33 | 21.87370 | -98.99949 | 30008 ft | 470 kts | 2° |
| 2026-04-28 17:33 | 21.92841 | -98.99667 | 30011 ft | 470 kts | 2° |
| 2026-04-28 17:34 | 22.00433 | -98.99274 | 30008 ft | 470 kts | 2° |
| 2026-04-28 17:34 | 22.06958 | -98.98937 | 30014 ft | 470 kts | 2° |
| 2026-04-28 17:35 | 22.13493 | -98.98598 | 30011 ft | 470 kts | 2° |
| 2026-04-28 17:35 | 22.20022 | -98.98259 | 30010 ft | 470 kts | 2° |
| 2026-04-28 17:36 | 22.26557 | -98.97920 | 30010 ft | 470 kts | 2° |
| 2026-04-28 17:36 | 22.33091 | -98.97581 | 30013 ft | 470 kts | 2° |
| 2026-04-28 17:37 | 22.39625 | -98.97241 | 30015 ft | 470 kts | 2° |
| 2026-04-28 17:37 | 22.46159 | -98.96901 | 30013 ft | 470 kts | 2° |
| 2026-04-28 17:38 | 22.52681 | -98.96561 | 30008 ft | 470 kts | 2° |
| 2026-04-28 17:38 | 22.59228 | -98.96220 | 30009 ft | 470 kts | 2° |
| 2026-04-28 17:39 | 22.65762 | -98.95878 | 30003 ft | 470 kts | 2° |
| 2026-04-28 17:40 | 22.75563 | -98.95366 | 30009 ft | 470 kts | 2° |
| 2026-04-28 17:40 | 22.82096 | -98.95024 | 30003 ft | 470 kts | 2° |
| 2026-04-28 17:41 | 22.88635 | -98.94681 | 30012 ft | 470 kts | 2° |
| 2026-04-28 17:41 | 22.95168 | -98.94339 | 30008 ft | 470 kts | 2° |
| 2026-04-28 17:42 | 23.01704 | -98.93996 | 30012 ft | 470 kts | 2° |
| 2026-04-28 17:42 | 23.08235 | -98.93653 | 30007 ft | 470 kts | 2° |
| 2026-04-28 17:43 | 23.14771 | -98.93310 | 30006 ft | 470 kts | 2° |
| 2026-04-28 17:43 | 23.21261 | -98.92968 | 30008 ft | 470 kts | 2° |
| 2026-04-28 17:44 | 23.27804 | -98.92623 | 30007 ft | 470 kts | 2° |
| 2026-04-28 17:44 | 23.34327 | -98.92442 | 30002 ft | 470 kts | 357° |
| 2026-04-28 17:45 | 23.40834 | -98.93191 | 30010 ft | 469 kts | 352° |
| 2026-04-28 17:45 | 23.47340 | -98.93777 | 30010 ft | 469 kts | 356° |
| 2026-04-28 17:46 | 23.53847 | -98.94352 | 30001 ft | 469 kts | 354° |
| 2026-04-28 17:46 | 23.60359 | -98.94981 | 30001 ft | 469 kts | 355° |
| 2026-04-28 17:47 | 23.66869 | -98.95550 | 30003 ft | 469 kts | 354° |
| 2026-04-28 17:47 | 23.73375 | -98.96210 | 30003 ft | 469 kts | 354° |
| 2026-04-28 17:48 | 23.79867 | -98.97013 | 30003 ft | 469 kts | 353° |
| 2026-04-28 17:48 | 23.86367 | -98.97760 | 30008 ft | 470 kts | 354° |
| 2026-04-28 17:49 | 23.92864 | -98.98538 | 30009 ft | 470 kts | 353° |
| 2026-04-28 17:49 | 23.99361 | -98.99300 | 30002 ft | 470 kts | 354° |
| 2026-04-28 17:50 | 24.05817 | -99.00067 | 30001 ft | 470 kts | 353° |
| 2026-04-28 17:50 | 24.12314 | -99.00835 | 30001 ft | 470 kts | 353° |
| 2026-04-28 17:51 | 24.18813 | -99.01607 | 30003 ft | 470 kts | 353° |
| 2026-04-28 17:51 | 24.25322 | -99.02381 | 30015 ft | 470 kts | 353° |
| 2026-04-28 17:52 | 24.31829 | -99.03156 | 30002 ft | 470 kts | 353° |
| 2026-04-28 17:52 | 24.41594 | -99.04320 | 30000 ft | 471 kts | 353° |
| 2026-04-28 17:53 | 24.48104 | -99.05099 | 30015 ft | 471 kts | 353° |
| 2026-04-28 17:53 | 24.54615 | -99.05876 | 30009 ft | 471 kts | 353° |
| 2026-04-28 17:54 | 24.61133 | -99.06658 | 30000 ft | 473 kts | 353° |
| 2026-04-28 17:54 | 24.67692 | -99.07444 | 29997 ft | 475 kts | 353° |
| 2026-04-28 17:55 | 24.74280 | -99.08234 | 30002 ft | 477 kts | 353° |
| 2026-04-28 17:55 | 24.80895 | -99.09028 | 30011 ft | 479 kts | 353° |
| 2026-04-28 17:56 | 24.87527 | -99.09831 | 30010 ft | 480 kts | 353° |
| 2026-04-28 17:56 | 24.90784 | -99.10606 | 29992 ft | 479 kts | 341° |
| 2026-04-28 17:56 | 24.93842 | -99.12052 | 29993 ft | 479 kts | 330° |
| 2026-04-28 17:57 | 24.99046 | -99.16587 | 29999 ft | 479 kts | 315° |
| 2026-04-28 17:57 | 25.03483 | -99.22065 | 29766 ft | 478 kts | 310° |
| 2026-04-28 17:58 | 25.05699 | -99.24762 | 29241 ft | 470 kts | 313° |
| 2026-04-28 17:58 | 25.07970 | -99.27328 | 28404 ft | 465 kts | 314° |
| 2026-04-28 17:58 | 25.10194 | -99.29891 | 27586 ft | 459 kts | 312° |
| 2026-04-28 17:58 | 25.12320 | -99.32485 | 26757 ft | 453 kts | 311° |
| 2026-04-28 17:59 | 25.14419 | -99.35044 | 25934 ft | 446 kts | 312° |
| 2026-04-28 17:59 | 25.16531 | -99.37526 | 25108 ft | 440 kts | 313° |
| 2026-04-28 17:59 | 25.18616 | -99.39957 | 24319 ft | 433 kts | 313° |
| 2026-04-28 17:59 | 25.20789 | -99.42183 | 23578 ft | 418 kts | 323° |
| 2026-04-28 18:00 | 25.23196 | -99.43814 | 23097 ft | 397 kts | 331° |
| 2026-04-28 18:00 | 25.25590 | -99.45135 | 22721 ft | 382 kts | 335° |
| 2026-04-28 18:00 | 25.28025 | -99.46310 | 22212 ft | 374 kts | 336° |
| 2026-04-28 18:00 | 25.30335 | -99.47452 | 21998 ft | 360 kts | 334° |
| 2026-04-28 18:01 | 25.32532 | -99.48622 | 21984 ft | 341 kts | 333° |
| 2026-04-28 18:01 | 25.34661 | -99.49754 | 21683 ft | 334 kts | 334° |
| 2026-04-28 18:01 | 25.36752 | -99.50827 | 20944 ft | 340 kts | 335° |
| 2026-04-28 18:01 | 25.38925 | -99.51938 | 20109 ft | 348 kts | 334° |
| 2026-04-28 18:02 | 25.41135 | -99.53086 | 19320 ft | 353 kts | 334° |
| 2026-04-28 18:02 | 25.43370 | -99.54254 | 18526 ft | 358 kts | 334° |
| 2026-04-28 18:02 | 25.45638 | -99.55430 | 17725 ft | 361 kts | 334° |
| 2026-04-28 18:02 | 25.47918 | -99.56609 | 17016 ft | 361 kts | 334° |
| 2026-04-28 18:03 | 25.50140 | -99.57764 | 16995 ft | 348 kts | 334° |
| 2026-04-28 18:03 | 25.52341 | -99.58909 | 16990 ft | 351 kts | 334° |
| 2026-04-28 18:03 | 25.54563 | -99.60064 | 16994 ft | 354 kts | 334° |
| 2026-04-28 18:03 | 25.56805 | -99.61229 | 16999 ft | 357 kts | 334° |
| 2026-04-28 18:04 | 25.59062 | -99.62403 | 16998 ft | 361 kts | 334° |
| 2026-04-28 18:04 | 25.61365 | -99.63601 | 17001 ft | 371 kts | 334° |
| 2026-04-28 18:04 | 25.63734 | -99.64835 | 17005 ft | 380 kts | 334° |
| 2026-04-28 18:04 | 25.66149 | -99.66093 | 16999 ft | 388 kts | 334° |
| 2026-04-28 18:05 | 25.68613 | -99.67377 | 17003 ft | 394 kts | 334° |
| 2026-04-28 18:05 | 25.70296 | -99.68255 | 17002 ft | 398 kts | 334° |
| 2026-04-28 18:05 | 25.73646 | -99.70002 | 17000 ft | 406 kts | 334° |
| 2026-04-28 18:05 | 25.76136 | -99.71498 | 16991 ft | 409 kts | 324° |
| 2026-04-28 18:06 | 25.78277 | -99.73598 | 16991 ft | 412 kts | 311° |
| 2026-04-28 18:06 | 25.80038 | -99.76112 | 17004 ft | 415 kts | 304° |
| 2026-04-28 18:06 | 25.81573 | -99.78796 | 16994 ft | 395 kts | 300° |
| 2026-04-28 18:06 | 25.82505 | -99.80608 | 16976 ft | 362 kts | 299° |
| 2026-04-28 18:07 | 25.83731 | -99.82863 | 16967 ft | 323 kts | 302° |
| 2026-04-28 18:07 | 25.84917 | -99.84836 | 16952 ft | 292 kts | 303° |
| 2026-04-28 18:07 | 25.85980 | -99.86633 | 16957 ft | 265 kts | 302° |
| 2026-04-28 18:07 | 25.86919 | -99.88299 | 16960 ft | 248 kts | 301° |
| 2026-04-28 18:08 | 25.87825 | -99.89900 | 16795 ft | 246 kts | 302° |
| 2026-04-28 18:08 | 25.88746 | -99.91505 | 16563 ft | 247 kts | 302° |
| 2026-04-28 18:08 | 25.89680 | -99.93135 | 16202 ft | 255 kts | 302° |
| 2026-04-28 18:08 | 25.90653 | -99.94839 | 15837 ft | 269 kts | 302° |
| 2026-04-28 18:09 | 25.91689 | -99.96655 | 15390 ft | 286 kts | 302° |
| 2026-04-28 18:09 | 25.92777 | -99.98557 | 14949 ft | 296 kts | 302° |
| 2026-04-28 18:09 | 25.93885 | -100.00494 | 14483 ft | 298 kts | 302° |
| 2026-04-28 18:09 | 25.94996 | -100.02437 | 14015 ft | 299 kts | 302° |
| 2026-04-28 18:10 | 25.96109 | -100.04386 | 13520 ft | 298 kts | 302° |
| 2026-04-28 18:10 | 25.97215 | -100.06323 | 13021 ft | 295 kts | 302° |
| 2026-04-28 18:10 | 25.98308 | -100.08240 | 12526 ft | 291 kts | 302° |
| 2026-04-28 18:10 | 25.99379 | -100.10116 | 12015 ft | 284 kts | 302° |
| 2026-04-28 18:11 | 26.00416 | -100.11937 | 11496 ft | 274 kts | 302° |
| 2026-04-28 18:11 | 26.01431 | -100.13719 | 10977 ft | 270 kts | 302° |
| 2026-04-28 18:11 | 26.02414 | -100.15444 | 10462 ft | 259 kts | 302° |
| 2026-04-28 18:11 | 26.03328 | -100.17119 | 10020 ft | 249 kts | 295° |
| 2026-04-28 18:12 | 26.03784 | -100.18926 | 9623 ft | 245 kts | 275° |
| 2026-04-28 18:12 | 26.03783 | -100.20198 | 9364 ft | 243 kts | 262° |
| 2026-04-28 18:12 | 26.03072 | -100.22512 | 8771 ft | 235 kts | 238° |
| 2026-04-28 18:12 | 26.02047 | -100.23867 | 8289 ft | 225 kts | 220° |
| 2026-04-28 18:13 | 26.00790 | -100.24857 | 7808 ft | 219 kts | 211° |
| 2026-04-28 18:13 | 25.99904 | -100.25428 | 7554 ft | 213 kts | 210° |
| 2026-04-28 18:13 | 25.98230 | -100.26508 | 7034 ft | 209 kts | 211° |
| 2026-04-28 18:13 | 25.97410 | -100.27063 | 6961 ft | 198 kts | 212° |
| 2026-04-28 18:14 | 25.95875 | -100.28101 | 6604 ft | 193 kts | 211° |
| 2026-04-28 18:14 | 25.95092 | -100.28628 | 6369 ft | 195 kts | 211° |
| 2026-04-28 18:14 | 25.93922 | -100.29413 | 6048 ft | 198 kts | 211° |
| 2026-04-28 18:14 | 25.92742 | -100.30207 | 5875 ft | 202 kts | 211° |
| 2026-04-28 18:15 | 25.91491 | -100.30911 | 5653 ft | 204 kts | 195° |
| 2026-04-28 18:15 | 25.90099 | -100.30944 | 5425 ft | 200 kts | 169° |
| 2026-04-28 18:15 | 25.88853 | -100.30315 | 5194 ft | 198 kts | 142° |
| 2026-04-28 18:15 | 25.87950 | -100.29185 | 4971 ft | 195 kts | 124° |
| 2026-04-28 18:16 | 25.87277 | -100.27913 | 4733 ft | 188 kts | 120° |
| 2026-04-28 18:16 | 25.86615 | -100.26652 | 4309 ft | 190 kts | 122° |
| 2026-04-28 18:16 | 25.85932 | -100.25406 | 3881 ft | 188 kts | 122° |
| 2026-04-28 18:16 | 25.85267 | -100.24199 | 3680 ft | 173 kts | 122° |
| 2026-04-28 18:17 | 25.84676 | -100.23121 | 3653 ft | 153 kts | 122° |
| 2026-04-28 18:17 | 25.84142 | -100.22149 | 3468 ft | 148 kts | 122° |
| 2026-04-28 18:17 | 25.83593 | -100.21153 | 3111 ft | 153 kts | 122° |
| 2026-04-28 18:17 | 25.83067 | -100.20155 | 2915 ft | 146 kts | 121° |
| 2026-04-28 18:18 | 25.82554 | -100.19168 | 2605 ft | 148 kts | 120° |
| 2026-04-28 18:18 | 25.82044 | -100.18190 | 2329 ft | 146 kts | 126° |
| 2026-04-28 18:18 | 25.81478 | -100.17242 | 2129 ft | 150 kts | 123° |
| 2026-04-28 18:18 | 25.81120 | -100.16588 | 2057 ft | 150 kts | 123° |
| 2026-04-28 18:19 | 25.80368 | -100.15273 | 1936 ft | 149 kts | 120° |
| 2026-04-28 18:19 | 25.79830 | -100.14345 | 1857 ft | 138 kts | 132° |
| 2026-04-28 18:19 | 25.79303 | -100.13512 | 1751 ft | 131 kts | 116° |
| 2026-04-28 18:19 | 25.78883 | -100.12590 | 1580 ft | 134 kts | 122° |
| 2026-04-28 18:20 | 25.78416 | -100.11713 | 1322 ft | 130 kts | 122° |
| 2026-04-28 18:20 | 25.78023 | -100.11002 | 1284 ft | 74 kts | 121° |
| 2026-04-28 18:20 | 25.77867 | -100.10722 | 1283 ft | 23 kts | 125° |
| 2026-04-28 18:20 | 25.77765 | -100.10674 | 1283 ft | 17 kts | 166° |
| 2026-04-28 18:21 | 25.77667 | -100.10646 | 1282 ft | 13 kts | 166° |
| 2026-04-28 18:21 | 25.77617 | -100.10676 | 1282 ft | 10 kts | 297° |
| 2026-04-28 18:21 | 25.77659 | -100.10744 | 1283 ft | 12 kts | 301° |
| 2026-04-28 18:21 | 25.77705 | -100.10829 | 1283 ft | 14 kts | 301° |
| 2026-04-28 18:22 | 25.77761 | -100.10929 | 1283 ft | 16 kts | 301° |
| 2026-04-28 18:22 | 25.77823 | -100.11044 | 1284 ft | 18 kts | 300° |
| 2026-04-28 18:22 | 25.77883 | -100.11155 | 1284 ft | 8 kts | 303° |
| 2026-04-28 18:22 | 25.77919 | -100.11218 | 1284 ft | 11 kts | 295° |
| 2026-04-28 18:23 | 25.77889 | -100.11260 | 1284 ft | 8 kts | 209° |
| 2026-04-28 18:23 | 25.77863 | -100.11278 | 1284 ft | 0 kts | 210° |